sensor_id;sensor_type;location;lat;lon;timestamp;P1;durP1;ratioP1;P2;durP2;ratioP2
76208;SDS011;64990;51.698;-0.292;2023-04-25T00:00:31;21.58;;;5.18;;
76208;SDS011;64990;51.698;-0.292;2023-04-25T00:02:57;26.42;;;4.45;;
76208;SDS011;64990;51.698;-0.292;2023-04-25T00:05:25;27.67;;;5.20;;
76208;SDS011;64990;51.698;-0.292;2023-04-25T00:07:51;13.25;;;4.63;;
76208;SDS011;64990;51.698;-0.292;2023-04-25T00:10:17;18.85;;;4.75;;
76208;SDS011;64990;51.698;-0.292;2023-04-25T00:12:43;20.90;;;4.95;;
76208;SDS011;64990;51.698;-0.292;2023-04-25T00:15:10;22.00;;;4.80;;
76208;SDS011;64990;51.698;-0.292;2023-04-25T00:17:37;29.85;;;6.95;;
76208;SDS011;64990;51.698;-0.292;2023-04-25T00:20:06;21.02;;;3.72;;
76208;SDS011;64990;51.698;-0.292;2023-04-25T00:22:34;16.15;;;3.95;;
76208;SDS011;64990;51.698;-0.292;2023-04-25T00:25:02;23.48;;;5.53;;
76208;SDS011;64990;51.698;-0.292;2023-04-25T00:27:28;22.55;;;4.72;;
76208;SDS011;64990;51.698;-0.292;2023-04-25T00:29:54;42.88;;;7.60;;
76208;SDS011;64990;51.698;-0.292;2023-04-25T00:32:20;25.00;;;5.57;;
76208;SDS011;64990;51.698;-0.292;2023-04-25T00:34:46;49.45;;;6.18;;
76208;SDS011;64990;51.698;-0.292;2023-04-25T00:37:12;18.10;;;4.60;;
76208;SDS011;64990;51.698;-0.292;2023-04-25T00:39:38;14.43;;;6.82;;
76208;SDS011;64990;51.698;-0.292;2023-04-25T00:42:04;13.80;;;4.82;;
76208;SDS011;64990;51.698;-0.292;2023-04-25T00:44:31;17.13;;;4.97;;
76208;SDS011;64990;51.698;-0.292;2023-04-25T00:46:57;18.05;;;4.97;;
76208;SDS011;64990;51.698;-0.292;2023-04-25T00:49:24;10.25;;;5.25;;
76208;SDS011;64990;51.698;-0.292;2023-04-25T00:51:50;21.15;;;4.70;;
76208;SDS011;64990;51.698;-0.292;2023-04-25T00:54:15;21.05;;;5.07;;
76208;SDS011;64990;51.698;-0.292;2023-04-25T00:56:42;24.90;;;4.93;;
76208;SDS011;64990;51.698;-0.292;2023-04-25T00:59:10;22.67;;;6.85;;
76208;SDS011;64990;51.698;-0.292;2023-04-25T01:01:36;42.97;;;8.15;;
76208;SDS011;64990;51.698;-0.292;2023-04-25T01:04:03;23.58;;;7.05;;
76208;SDS011;64990;51.698;-0.292;2023-04-25T01:06:29;13.77;;;4.43;;
76208;SDS011;64990;51.698;-0.292;2023-04-25T01:08:55;23.33;;;5.13;;
76208;SDS011;64990;51.698;-0.292;2023-04-25T01:11:22;22.90;;;5.25;;
76208;SDS011;64990;51.698;-0.292;2023-04-25T01:13:48;18.00;;;4.72;;
76208;SDS011;64990;51.698;-0.292;2023-04-25T01:16:14;9.60;;;3.97;;
76208;SDS011;64990;51.698;-0.292;2023-04-25T01:18:40;27.20;;;6.60;;
76208;SDS011;64990;51.698;-0.292;2023-04-25T01:21:07;15.15;;;5.60;;
76208;SDS011;64990;51.698;-0.292;2023-04-25T01:23:34;16.73;;;4.90;;
76208;SDS011;64990;51.698;-0.292;2023-04-25T01:26:01;15.93;;;5.40;;
76208;SDS011;64990;51.698;-0.292;2023-04-25T01:28:27;19.17;;;4.43;;
76208;SDS011;64990;51.698;-0.292;2023-04-25T01:30:53;19.48;;;3.72;;
76208;SDS011;64990;51.698;-0.292;2023-04-25T01:33:20;21.60;;;4.70;;
76208;SDS011;64990;51.698;-0.292;2023-04-25T01:35:47;9.13;;;5.80;;
76208;SDS011;64990;51.698;-0.292;2023-04-25T01:38:14;14.13;;;5.35;;
76208;SDS011;64990;51.698;-0.292;2023-04-25T01:40:40;22.98;;;4.35;;
76208;SDS011;64990;51.698;-0.292;2023-04-25T01:43:07;25.23;;;5.00;;
76208;SDS011;64990;51.698;-0.292;2023-04-25T01:45:36;17.50;;;4.03;;
76208;SDS011;64990;51.698;-0.292;2023-04-25T01:48:04;14.35;;;4.80;;
76208;SDS011;64990;51.698;-0.292;2023-04-25T01:50:30;21.77;;;4.65;;
76208;SDS011;64990;51.698;-0.292;2023-04-25T01:52:56;16.83;;;3.85;;
76208;SDS011;64990;51.698;-0.292;2023-04-25T01:55:22;16.77;;;3.45;;
76208;SDS011;64990;51.698;-0.292;2023-04-25T01:57:49;13.90;;;4.10;;
76208;SDS011;64990;51.698;-0.292;2023-04-25T02:00:15;13.27;;;2.83;;
76208;SDS011;64990;51.698;-0.292;2023-04-25T02:02:41;17.08;;;5.13;;
76208;SDS011;64990;51.698;-0.292;2023-04-25T02:05:07;18.73;;;4.40;;
76208;SDS011;64990;51.698;-0.292;2023-04-25T02:07:33;13.90;;;3.58;;
76208;SDS011;64990;51.698;-0.292;2023-04-25T02:09:59;15.27;;;3.88;;
76208;SDS011;64990;51.698;-0.292;2023-04-25T02:12:25;18.40;;;6.55;;
76208;SDS011;64990;51.698;-0.292;2023-04-25T02:14:52;17.67;;;4.45;;
76208;SDS011;64990;51.698;-0.292;2023-04-25T02:17:18;32.53;;;7.28;;
76208;SDS011;64990;51.698;-0.292;2023-04-25T02:19:44;18.13;;;4.05;;
76208;SDS011;64990;51.698;-0.292;2023-04-25T02:22:10;18.67;;;4.53;;
76208;SDS011;64990;51.698;-0.292;2023-04-25T02:24:36;20.35;;;2.72;;
76208;SDS011;64990;51.698;-0.292;2023-04-25T02:27:02;12.52;;;3.55;;
76208;SDS011;64990;51.698;-0.292;2023-04-25T02:29:29;28.20;;;4.25;;
76208;SDS011;64990;51.698;-0.292;2023-04-25T02:31:55;14.38;;;3.78;;
76208;SDS011;64990;51.698;-0.292;2023-04-25T02:34:21;14.45;;;4.18;;
76208;SDS011;64990;51.698;-0.292;2023-04-25T02:36:48;20.48;;;3.10;;
76208;SDS011;64990;51.698;-0.292;2023-04-25T02:39:15;15.63;;;4.03;;
76208;SDS011;64990;51.698;-0.292;2023-04-25T02:41:42;21.05;;;4.72;;
76208;SDS011;64990;51.698;-0.292;2023-04-25T02:44:08;18.40;;;3.30;;
76208;SDS011;64990;51.698;-0.292;2023-04-25T02:46:34;17.98;;;4.72;;
76208;SDS011;64990;51.698;-0.292;2023-04-25T02:49:00;8.27;;;2.38;;
76208;SDS011;64990;51.698;-0.292;2023-04-25T02:51:26;25.20;;;4.95;;
76208;SDS011;64990;51.698;-0.292;2023-04-25T02:53:51;13.77;;;5.07;;
76208;SDS011;64990;51.698;-0.292;2023-04-25T02:56:17;15.43;;;4.72;;
76208;SDS011;64990;51.698;-0.292;2023-04-25T02:58:43;10.82;;;2.97;;
76208;SDS011;64990;51.698;-0.292;2023-04-25T03:01:10;12.90;;;5.65;;
76208;SDS011;64990;51.698;-0.292;2023-04-25T03:03:36;17.83;;;5.95;;
76208;SDS011;64990;51.698;-0.292;2023-04-25T03:06:02;12.45;;;5.65;;
76208;SDS011;64990;51.698;-0.292;2023-04-25T03:08:28;14.90;;;3.90;;
76208;SDS011;64990;51.698;-0.292;2023-04-25T03:10:57;18.60;;;4.55;;
76208;SDS011;64990;51.698;-0.292;2023-04-25T03:13:23;19.23;;;3.85;;
76208;SDS011;64990;51.698;-0.292;2023-04-25T03:15:49;12.73;;;3.88;;
76208;SDS011;64990;51.698;-0.292;2023-04-25T03:18:15;31.02;;;5.50;;
76208;SDS011;64990;51.698;-0.292;2023-04-25T03:20:41;16.60;;;5.13;;
76208;SDS011;64990;51.698;-0.292;2023-04-25T03:23:08;27.02;;;7.15;;
76208;SDS011;64990;51.698;-0.292;2023-04-25T03:25:34;17.85;;;4.28;;
76208;SDS011;64990;51.698;-0.292;2023-04-25T03:28:00;31.55;;;6.05;;
76208;SDS011;64990;51.698;-0.292;2023-04-25T03:30:26;10.10;;;4.15;;
76208;SDS011;64990;51.698;-0.292;2023-04-25T03:32:52;8.38;;;3.95;;
76208;SDS011;64990;51.698;-0.292;2023-04-25T03:35:18;19.20;;;6.07;;
76208;SDS011;64990;51.698;-0.292;2023-04-25T03:37:44;25.25;;;5.35;;
76208;SDS011;64990;51.698;-0.292;2023-04-25T03:40:10;15.80;;;3.90;;
76208;SDS011;64990;51.698;-0.292;2023-04-25T03:42:36;11.82;;;4.10;;
76208;SDS011;64990;51.698;-0.292;2023-04-25T03:45:03;17.80;;;5.93;;
76208;SDS011;64990;51.698;-0.292;2023-04-25T03:47:29;22.98;;;5.60;;
76208;SDS011;64990;51.698;-0.292;2023-04-25T03:49:55;13.68;;;6.53;;
76208;SDS011;64990;51.698;-0.292;2023-04-25T03:52:21;15.57;;;4.85;;
76208;SDS011;64990;51.698;-0.292;2023-04-25T03:54:47;26.40;;;6.25;;
76208;SDS011;64990;51.698;-0.292;2023-04-25T03:57:13;9.07;;;4.15;;
76208;SDS011;64990;51.698;-0.292;2023-04-25T03:59:39;15.68;;;5.07;;
76208;SDS011;64990;51.698;-0.292;2023-04-25T04:02:05;19.48;;;5.63;;
76208;SDS011;64990;51.698;-0.292;2023-04-25T04:04:31;23.85;;;4.60;;
76208;SDS011;64990;51.698;-0.292;2023-04-25T04:06:57;14.55;;;5.25;;
76208;SDS011;64990;51.698;-0.292;2023-04-25T04:09:23;24.88;;;5.85;;
76208;SDS011;64990;51.698;-0.292;2023-04-25T04:11:50;23.30;;;4.25;;
76208;SDS011;64990;51.698;-0.292;2023-04-25T04:14:16;23.73;;;5.95;;
76208;SDS011;64990;51.698;-0.292;2023-04-25T04:16:42;22.60;;;7.63;;
76208;SDS011;64990;51.698;-0.292;2023-04-25T04:19:08;26.02;;;5.00;;
76208;SDS011;64990;51.698;-0.292;2023-04-25T04:21:34;21.17;;;6.53;;
76208;SDS011;64990;51.698;-0.292;2023-04-25T04:24:00;23.23;;;4.95;;
76208;SDS011;64990;51.698;-0.292;2023-04-25T04:26:26;8.48;;;3.80;;
76208;SDS011;64990;51.698;-0.292;2023-04-25T04:28:52;27.58;;;5.47;;
76208;SDS011;64990;51.698;-0.292;2023-04-25T04:31:19;15.65;;;3.97;;
76208;SDS011;64990;51.698;-0.292;2023-04-25T04:33:46;31.92;;;6.07;;
76208;SDS011;64990;51.698;-0.292;2023-04-25T04:36:12;15.15;;;5.65;;
76208;SDS011;64990;51.698;-0.292;2023-04-25T04:38:38;20.00;;;5.88;;
76208;SDS011;64990;51.698;-0.292;2023-04-25T04:41:05;11.50;;;4.85;;
76208;SDS011;64990;51.698;-0.292;2023-04-25T04:43:31;24.52;;;4.28;;
76208;SDS011;64990;51.698;-0.292;2023-04-25T04:45:58;36.33;;;6.13;;
76208;SDS011;64990;51.698;-0.292;2023-04-25T04:48:24;21.35;;;4.55;;
76208;SDS011;64990;51.698;-0.292;2023-04-25T04:50:51;14.20;;;4.10;;
76208;SDS011;64990;51.698;-0.292;2023-04-25T04:53:17;12.10;;;3.80;;
76208;SDS011;64990;51.698;-0.292;2023-04-25T04:55:43;12.63;;;4.88;;
76208;SDS011;64990;51.698;-0.292;2023-04-25T04:58:09;20.42;;;6.25;;
76208;SDS011;64990;51.698;-0.292;2023-04-25T05:00:35;12.52;;;5.07;;
76208;SDS011;64990;51.698;-0.292;2023-04-25T05:03:01;18.83;;;3.50;;
76208;SDS011;64990;51.698;-0.292;2023-04-25T05:05:27;22.95;;;6.05;;
76208;SDS011;64990;51.698;-0.292;2023-04-25T05:07:53;11.43;;;4.50;;
76208;SDS011;64990;51.698;-0.292;2023-04-25T05:10:19;25.58;;;6.20;;
76208;SDS011;64990;51.698;-0.292;2023-04-25T05:12:45;18.30;;;3.35;;
76208;SDS011;64990;51.698;-0.292;2023-04-25T05:15:11;21.95;;;5.07;;
76208;SDS011;64990;51.698;-0.292;2023-04-25T05:17:37;23.10;;;5.43;;
76208;SDS011;64990;51.698;-0.292;2023-04-25T05:20:04;11.55;;;3.83;;
76208;SDS011;64990;51.698;-0.292;2023-04-25T05:22:30;17.73;;;4.22;;
76208;SDS011;64990;51.698;-0.292;2023-04-25T05:24:56;11.25;;;4.65;;
76208;SDS011;64990;51.698;-0.292;2023-04-25T05:27:23;20.13;;;3.80;;
76208;SDS011;64990;51.698;-0.292;2023-04-25T05:29:49;22.23;;;6.00;;
76208;SDS011;64990;51.698;-0.292;2023-04-25T05:32:16;16.60;;;4.80;;
76208;SDS011;64990;51.698;-0.292;2023-04-25T05:34:42;16.55;;;4.95;;
76208;SDS011;64990;51.698;-0.292;2023-04-25T05:37:08;19.38;;;5.32;;
76208;SDS011;64990;51.698;-0.292;2023-04-25T05:39:34;23.95;;;4.75;;
76208;SDS011;64990;51.698;-0.292;2023-04-25T05:42:01;19.67;;;3.97;;
76208;SDS011;64990;51.698;-0.292;2023-04-25T05:44:27;17.35;;;4.38;;
76208;SDS011;64990;51.698;-0.292;2023-04-25T05:46:53;11.15;;;3.83;;
76208;SDS011;64990;51.698;-0.292;2023-04-25T05:49:20;16.55;;;3.65;;
76208;SDS011;64990;51.698;-0.292;2023-04-25T05:51:46;20.90;;;4.50;;
76208;SDS011;64990;51.698;-0.292;2023-04-25T05:54:12;18.67;;;4.72;;
76208;SDS011;64990;51.698;-0.292;2023-04-25T05:56:38;13.75;;;3.45;;
76208;SDS011;64990;51.698;-0.292;2023-04-25T05:59:04;10.45;;;3.45;;
76208;SDS011;64990;51.698;-0.292;2023-04-25T06:01:31;11.30;;;4.25;;
76208;SDS011;64990;51.698;-0.292;2023-04-25T06:03:57;13.52;;;3.60;;
76208;SDS011;64990;51.698;-0.292;2023-04-25T06:06:23;12.77;;;4.75;;
76208;SDS011;64990;51.698;-0.292;2023-04-25T06:08:49;11.93;;;4.80;;
76208;SDS011;64990;51.698;-0.292;2023-04-25T06:11:15;8.60;;;3.85;;
76208;SDS011;64990;51.698;-0.292;2023-04-25T06:13:41;12.75;;;5.40;;
76208;SDS011;64990;51.698;-0.292;2023-04-25T06:16:07;14.88;;;4.47;;
76208;SDS011;64990;51.698;-0.292;2023-04-25T06:18:33;18.17;;;5.72;;
76208;SDS011;64990;51.698;-0.292;2023-04-25T06:20:59;14.45;;;2.67;;
76208;SDS011;64990;51.698;-0.292;2023-04-25T06:23:25;17.25;;;6.60;;
76208;SDS011;64990;51.698;-0.292;2023-04-25T06:25:52;19.60;;;4.63;;
76208;SDS011;64990;51.698;-0.292;2023-04-25T06:28:17;24.35;;;4.85;;
76208;SDS011;64990;51.698;-0.292;2023-04-25T06:30:44;24.75;;;4.25;;
76208;SDS011;64990;51.698;-0.292;2023-04-25T06:33:10;13.00;;;3.88;;
76208;SDS011;64990;51.698;-0.292;2023-04-25T06:35:36;11.55;;;4.90;;
76208;SDS011;64990;51.698;-0.292;2023-04-25T06:38:02;10.68;;;3.78;;
76208;SDS011;64990;51.698;-0.292;2023-04-25T06:40:28;16.00;;;4.55;;
76208;SDS011;64990;51.698;-0.292;2023-04-25T06:42:54;17.02;;;3.53;;
76208;SDS011;64990;51.698;-0.292;2023-04-25T06:45:20;15.10;;;3.80;;
76208;SDS011;64990;51.698;-0.292;2023-04-25T06:47:46;16.20;;;4.20;;
76208;SDS011;64990;51.698;-0.292;2023-04-25T06:50:12;30.20;;;6.43;;
76208;SDS011;64990;51.698;-0.292;2023-04-25T06:52:38;8.82;;;3.78;;
76208;SDS011;64990;51.698;-0.292;2023-04-25T06:55:04;28.27;;;5.50;;
76208;SDS011;64990;51.698;-0.292;2023-04-25T06:57:30;21.58;;;6.10;;
76208;SDS011;64990;51.698;-0.292;2023-04-25T06:59:56;17.00;;;4.50;;
76208;SDS011;64990;51.698;-0.292;2023-04-25T07:02:22;18.60;;;3.78;;
76208;SDS011;64990;51.698;-0.292;2023-04-25T07:04:48;15.65;;;3.47;;
76208;SDS011;64990;51.698;-0.292;2023-04-25T07:07:14;23.00;;;4.35;;
76208;SDS011;64990;51.698;-0.292;2023-04-25T07:09:42;16.48;;;3.15;;
76208;SDS011;64990;51.698;-0.292;2023-04-25T07:12:08;11.18;;;3.88;;
76208;SDS011;64990;51.698;-0.292;2023-04-25T07:14:34;32.00;;;7.25;;
76208;SDS011;64990;51.698;-0.292;2023-04-25T07:17:00;13.68;;;3.50;;
76208;SDS011;64990;51.698;-0.292;2023-04-25T07:19:26;16.30;;;5.38;;
76208;SDS011;64990;51.698;-0.292;2023-04-25T07:21:54;10.27;;;2.72;;
76208;SDS011;64990;51.698;-0.292;2023-04-25T07:24:20;6.95;;;2.80;;
76208;SDS011;64990;51.698;-0.292;2023-04-25T07:26:46;9.23;;;3.47;;
76208;SDS011;64990;51.698;-0.292;2023-04-25T07:29:13;18.13;;;5.47;;
76208;SDS011;64990;51.698;-0.292;2023-04-25T07:31:39;23.60;;;4.18;;
76208;SDS011;64990;51.698;-0.292;2023-04-25T07:34:06;8.38;;;3.53;;
76208;SDS011;64990;51.698;-0.292;2023-04-25T07:36:32;12.98;;;3.92;;
76208;SDS011;64990;51.698;-0.292;2023-04-25T07:38:58;12.05;;;3.42;;
76208;SDS011;64990;51.698;-0.292;2023-04-25T07:41:24;17.23;;;3.53;;
76208;SDS011;64990;51.698;-0.292;2023-04-25T07:43:50;13.88;;;4.30;;
76208;SDS011;64990;51.698;-0.292;2023-04-25T07:46:16;8.13;;;2.47;;
76208;SDS011;64990;51.698;-0.292;2023-04-25T07:48:42;17.10;;;3.42;;
76208;SDS011;64990;51.698;-0.292;2023-04-25T07:51:08;19.63;;;3.88;;
76208;SDS011;64990;51.698;-0.292;2023-04-25T07:53:34;11.00;;;3.15;;
76208;SDS011;64990;51.698;-0.292;2023-04-25T07:56:02;14.18;;;3.95;;
76208;SDS011;64990;51.698;-0.292;2023-04-25T07:58:28;13.05;;;3.85;;
76208;SDS011;64990;51.698;-0.292;2023-04-25T08:00:54;10.05;;;2.72;;
76208;SDS011;64990;51.698;-0.292;2023-04-25T08:03:20;23.35;;;4.47;;
76208;SDS011;64990;51.698;-0.292;2023-04-25T08:05:46;28.85;;;4.30;;
76208;SDS011;64990;51.698;-0.292;2023-04-25T08:08:12;28.40;;;4.40;;
76208;SDS011;64990;51.698;-0.292;2023-04-25T08:10:38;5.45;;;2.50;;
76208;SDS011;64990;51.698;-0.292;2023-04-25T08:13:05;9.93;;;2.33;;
76208;SDS011;64990;51.698;-0.292;2023-04-25T08:15:31;18.98;;;3.40;;
76208;SDS011;64990;51.698;-0.292;2023-04-25T08:17:57;8.45;;;1.88;;
76208;SDS011;64990;51.698;-0.292;2023-04-25T08:20:24;24.55;;;5.13;;
76208;SDS011;64990;51.698;-0.292;2023-04-25T08:22:50;12.27;;;2.47;;
76208;SDS011;64990;51.698;-0.292;2023-04-25T08:25:16;18.67;;;3.50;;
76208;SDS011;64990;51.698;-0.292;2023-04-25T08:27:42;17.95;;;4.60;;
76208;SDS011;64990;51.698;-0.292;2023-04-25T08:30:08;8.77;;;2.47;;
76208;SDS011;64990;51.698;-0.292;2023-04-25T08:32:35;12.57;;;2.67;;
76208;SDS011;64990;51.698;-0.292;2023-04-25T08:35:03;16.98;;;4.50;;
76208;SDS011;64990;51.698;-0.292;2023-04-25T08:37:29;10.07;;;2.58;;
76208;SDS011;64990;51.698;-0.292;2023-04-25T08:39:55;13.77;;;3.17;;
76208;SDS011;64990;51.698;-0.292;2023-04-25T08:42:21;5.90;;;1.95;;
76208;SDS011;64990;51.698;-0.292;2023-04-25T08:44:48;14.77;;;3.35;;
76208;SDS011;64990;51.698;-0.292;2023-04-25T08:47:15;7.47;;;2.88;;
76208;SDS011;64990;51.698;-0.292;2023-04-25T08:49:43;13.15;;;2.10;;
76208;SDS011;64990;51.698;-0.292;2023-04-25T08:52:10;17.02;;;3.17;;
76208;SDS011;64990;51.698;-0.292;2023-04-25T08:54:41;11.77;;;3.00;;
76208;SDS011;64990;51.698;-0.292;2023-04-25T08:57:08;11.77;;;3.58;;
76208;SDS011;64990;51.698;-0.292;2023-04-25T08:59:34;12.68;;;4.50;;
76208;SDS011;64990;51.698;-0.292;2023-04-25T09:02:02;7.90;;;2.63;;
76208;SDS011;64990;51.698;-0.292;2023-04-25T09:04:30;9.70;;;3.42;;
76208;SDS011;64990;51.698;-0.292;2023-04-25T09:06:56;9.13;;;2.80;;
76208;SDS011;64990;51.698;-0.292;2023-04-25T09:09:23;9.00;;;2.38;;
76208;SDS011;64990;51.698;-0.292;2023-04-25T09:11:49;12.00;;;2.60;;
76208;SDS011;64990;51.698;-0.292;2023-04-25T09:14:17;2.78;;;2.00;;
76208;SDS011;64990;51.698;-0.292;2023-04-25T09:19:29;16.30;;;3.10;;
76208;SDS011;64990;51.698;-0.292;2023-04-25T09:22:00;14.52;;;2.13;;
76208;SDS011;64990;51.698;-0.292;2023-04-25T09:24:39;19.02;;;3.97;;
76208;SDS011;64990;51.698;-0.292;2023-04-25T09:27:06;9.27;;;2.28;;
76208;SDS011;64990;51.698;-0.292;2023-04-25T09:29:34;5.75;;;2.40;;
76208;SDS011;64990;51.698;-0.292;2023-04-25T09:32:19;6.55;;;2.65;;
76208;SDS011;64990;51.698;-0.292;2023-04-25T09:37:16;3.40;;;1.83;;
76208;SDS011;64990;51.698;-0.292;2023-04-25T09:39:44;11.88;;;3.05;;
76208;SDS011;64990;51.698;-0.292;2023-04-25T09:42:10;19.63;;;2.97;;
76208;SDS011;64990;51.698;-0.292;2023-04-25T09:44:36;10.70;;;2.30;;
76208;SDS011;64990;51.698;-0.292;2023-04-25T09:47:02;13.27;;;2.88;;
76208;SDS011;64990;51.698;-0.292;2023-04-25T09:49:28;5.45;;;1.92;;
76208;SDS011;64990;51.698;-0.292;2023-04-25T09:51:58;3.45;;;1.33;;
76208;SDS011;64990;51.698;-0.292;2023-04-25T09:54:25;7.95;;;3.00;;
76208;SDS011;64990;51.698;-0.292;2023-04-25T09:56:52;12.75;;;2.05;;
76208;SDS011;64990;51.698;-0.292;2023-04-25T09:59:21;19.92;;;4.20;;
76208;SDS011;64990;51.698;-0.292;2023-04-25T10:01:49;8.55;;;1.50;;
76208;SDS011;64990;51.698;-0.292;2023-04-25T10:04:25;5.72;;;2.17;;
76208;SDS011;64990;51.698;-0.292;2023-04-25T10:06:53;6.65;;;1.73;;
76208;SDS011;64990;51.698;-0.292;2023-04-25T10:09:20;8.02;;;1.77;;
76208;SDS011;64990;51.698;-0.292;2023-04-25T10:11:48;7.00;;;1.73;;
76208;SDS011;64990;51.698;-0.292;2023-04-25T10:14:14;5.78;;;1.40;;
76208;SDS011;64990;51.698;-0.292;2023-04-25T10:16:40;11.18;;;1.90;;
76208;SDS011;64990;51.698;-0.292;2023-04-25T10:19:07;9.35;;;1.85;;
76208;SDS011;64990;51.698;-0.292;2023-04-25T10:21:33;6.47;;;1.85;;
76208;SDS011;64990;51.698;-0.292;2023-04-25T10:24:01;9.88;;;2.42;;
76208;SDS011;64990;51.698;-0.292;2023-04-25T10:26:28;6.75;;;2.45;;
76208;SDS011;64990;51.698;-0.292;2023-04-25T10:28:55;3.92;;;1.92;;
76208;SDS011;64990;51.698;-0.292;2023-04-25T10:31:21;12.05;;;2.22;;
76208;SDS011;64990;51.698;-0.292;2023-04-25T10:33:48;13.10;;;2.15;;
76208;SDS011;64990;51.698;-0.292;2023-04-25T10:36:15;3.88;;;1.85;;
76208;SDS011;64990;51.698;-0.292;2023-04-25T10:38:43;12.20;;;2.05;;
76208;SDS011;64990;51.698;-0.292;2023-04-25T10:41:10;5.68;;;1.50;;
76208;SDS011;64990;51.698;-0.292;2023-04-25T10:46:03;9.25;;;2.28;;
76208;SDS011;64990;51.698;-0.292;2023-04-25T10:48:38;5.65;;;1.83;;
76208;SDS011;64990;51.698;-0.292;2023-04-25T10:51:10;11.00;;;2.80;;
76208;SDS011;64990;51.698;-0.292;2023-04-25T10:53:36;5.22;;;1.50;;
76208;SDS011;64990;51.698;-0.292;2023-04-25T10:57:03;6.45;;;2.00;;
76208;SDS011;64990;51.698;-0.292;2023-04-25T10:59:04;18.83;;;2.80;;
76208;SDS011;64990;51.698;-0.292;2023-04-25T11:01:35;2.83;;;1.60;;
76208;SDS011;64990;51.698;-0.292;2023-04-25T11:04:01;16.90;;;2.67;;
76208;SDS011;64990;51.698;-0.292;2023-04-25T11:08:54;4.88;;;1.50;;
76208;SDS011;64990;51.698;-0.292;2023-04-25T11:11:20;9.20;;;2.38;;
76208;SDS011;64990;51.698;-0.292;2023-04-25T11:13:50;9.20;;;2.83;;
76208;SDS011;64990;51.698;-0.292;2023-04-25T11:16:16;7.90;;;1.95;;
76208;SDS011;64990;51.698;-0.292;2023-04-25T11:18:43;7.85;;;1.60;;
76208;SDS011;64990;51.698;-0.292;2023-04-25T11:21:09;3.58;;;1.58;;
76208;SDS011;64990;51.698;-0.292;2023-04-25T11:23:36;6.72;;;2.42;;
76208;SDS011;64990;51.698;-0.292;2023-04-25T11:26:02;10.07;;;2.15;;
76208;SDS011;64990;51.698;-0.292;2023-04-25T11:28:29;11.65;;;2.42;;
76208;SDS011;64990;51.698;-0.292;2023-04-25T11:30:55;3.72;;;1.25;;
76208;SDS011;64990;51.698;-0.292;2023-04-25T11:33:25;6.45;;;1.98;;
76208;SDS011;64990;51.698;-0.292;2023-04-25T11:35:54;6.75;;;2.20;;
76208;SDS011;64990;51.698;-0.292;2023-04-25T11:38:24;4.72;;;1.95;;
76208;SDS011;64990;51.698;-0.292;2023-04-25T11:40:51;6.95;;;2.10;;
76208;SDS011;64990;51.698;-0.292;2023-04-25T11:43:17;7.05;;;2.50;;
76208;SDS011;64990;51.698;-0.292;2023-04-25T11:45:46;8.90;;;2.70;;
76208;SDS011;64990;51.698;-0.292;2023-04-25T11:48:12;3.30;;;1.60;;
76208;SDS011;64990;51.698;-0.292;2023-04-25T11:50:39;4.40;;;1.60;;
76208;SDS011;64990;51.698;-0.292;2023-04-25T11:53:05;3.70;;;1.30;;
76208;SDS011;64990;51.698;-0.292;2023-04-25T11:55:32;9.45;;;1.88;;
76208;SDS011;64990;51.698;-0.292;2023-04-25T11:57:59;3.05;;;1.48;;
76208;SDS011;64990;51.698;-0.292;2023-04-25T12:00:25;4.63;;;1.80;;
76208;SDS011;64990;51.698;-0.292;2023-04-25T12:02:55;3.65;;;1.42;;
76208;SDS011;64990;51.698;-0.292;2023-04-25T12:05:26;7.18;;;2.33;;
76208;SDS011;64990;51.698;-0.292;2023-04-25T12:07:52;6.60;;;1.50;;
76208;SDS011;64990;51.698;-0.292;2023-04-25T12:10:19;4.68;;;1.80;;
76208;SDS011;64990;51.698;-0.292;2023-04-25T12:12:45;4.55;;;1.70;;
76208;SDS011;64990;51.698;-0.292;2023-04-25T12:15:12;3.95;;;1.52;;
76208;SDS011;64990;51.698;-0.292;2023-04-25T12:17:48;7.10;;;2.08;;
76208;SDS011;64990;51.698;-0.292;2023-04-25T12:20:15;20.02;;;2.45;;
76208;SDS011;64990;51.698;-0.292;2023-04-25T12:22:42;3.80;;;1.38;;
76208;SDS011;64990;51.698;-0.292;2023-04-25T12:25:12;5.32;;;2.33;;
76208;SDS011;64990;51.698;-0.292;2023-04-25T12:27:39;11.07;;;2.10;;
76208;SDS011;64990;51.698;-0.292;2023-04-25T12:30:09;3.20;;;1.77;;
76208;SDS011;64990;51.698;-0.292;2023-04-25T12:32:35;5.85;;;1.77;;
76208;SDS011;64990;51.698;-0.292;2023-04-25T12:35:02;6.07;;;1.75;;
76208;SDS011;64990;51.698;-0.292;2023-04-25T12:37:28;3.47;;;1.50;;
76208;SDS011;64990;51.698;-0.292;2023-04-25T12:39:55;5.32;;;1.98;;
76208;SDS011;64990;51.698;-0.292;2023-04-25T12:42:21;7.40;;;1.52;;
76208;SDS011;64990;51.698;-0.292;2023-04-25T12:44:47;4.80;;;1.30;;
76208;SDS011;64990;51.698;-0.292;2023-04-25T12:47:13;14.25;;;2.25;;
76208;SDS011;64990;51.698;-0.292;2023-04-25T12:49:40;3.83;;;1.35;;
76208;SDS011;64990;51.698;-0.292;2023-04-25T12:52:06;4.00;;;1.77;;
76208;SDS011;64990;51.698;-0.292;2023-04-25T12:54:32;2.78;;;1.30;;
76208;SDS011;64990;51.698;-0.292;2023-04-25T12:56:58;8.57;;;1.38;;
76208;SDS011;64990;51.698;-0.292;2023-04-25T12:59:24;6.05;;;1.40;;
76208;SDS011;64990;51.698;-0.292;2023-04-25T13:01:50;6.30;;;1.52;;
76208;SDS011;64990;51.698;-0.292;2023-04-25T13:04:16;5.18;;;2.40;;
76208;SDS011;64990;51.698;-0.292;2023-04-25T13:06:42;11.93;;;1.98;;
76208;SDS011;64990;51.698;-0.292;2023-04-25T13:09:08;4.40;;;1.42;;
76208;SDS011;64990;51.698;-0.292;2023-04-25T13:11:35;9.73;;;1.85;;
76208;SDS011;64990;51.698;-0.292;2023-04-25T13:14:01;12.07;;;2.90;;
76208;SDS011;64990;51.698;-0.292;2023-04-25T13:16:27;10.30;;;2.17;;
76208;SDS011;64990;51.698;-0.292;2023-04-25T13:18:53;3.28;;;1.75;;
76208;SDS011;64990;51.698;-0.292;2023-04-25T13:21:21;3.13;;;1.98;;
76208;SDS011;64990;51.698;-0.292;2023-04-25T13:23:47;8.95;;;3.80;;
76208;SDS011;64990;51.698;-0.292;2023-04-25T13:26:13;14.52;;;3.58;;
76208;SDS011;64990;51.698;-0.292;2023-04-25T13:28:38;10.52;;;1.80;;
76208;SDS011;64990;51.698;-0.292;2023-04-25T13:31:05;2.47;;;1.52;;
76208;SDS011;64990;51.698;-0.292;2023-04-25T13:33:32;5.30;;;1.65;;
76208;SDS011;64990;51.698;-0.292;2023-04-25T13:35:58;9.02;;;3.33;;
76208;SDS011;64990;51.698;-0.292;2023-04-25T13:38:24;5.72;;;1.98;;
76208;SDS011;64990;51.698;-0.292;2023-04-25T13:40:50;4.35;;;2.00;;
76208;SDS011;64990;51.698;-0.292;2023-04-25T13:43:18;10.43;;;1.90;;
76208;SDS011;64990;51.698;-0.292;2023-04-25T13:45:45;5.00;;;2.20;;
76208;SDS011;64990;51.698;-0.292;2023-04-25T13:48:11;4.38;;;1.95;;
76208;SDS011;64990;51.698;-0.292;2023-04-25T13:50:37;4.00;;;2.13;;
76208;SDS011;64990;51.698;-0.292;2023-04-25T13:53:03;4.32;;;2.17;;
76208;SDS011;64990;51.698;-0.292;2023-04-25T13:55:29;5.20;;;2.55;;
76208;SDS011;64990;51.698;-0.292;2023-04-25T13:57:55;6.47;;;2.58;;
76208;SDS011;64990;51.698;-0.292;2023-04-25T14:00:21;4.38;;;2.10;;
76208;SDS011;64990;51.698;-0.292;2023-04-25T14:02:47;10.45;;;3.03;;
76208;SDS011;64990;51.698;-0.292;2023-04-25T14:05:14;6.03;;;2.40;;
76208;SDS011;64990;51.698;-0.292;2023-04-25T14:07:40;5.00;;;2.50;;
76208;SDS011;64990;51.698;-0.292;2023-04-25T14:10:06;10.65;;;3.30;;
76208;SDS011;64990;51.698;-0.292;2023-04-25T14:12:32;9.60;;;2.17;;
76208;SDS011;64990;51.698;-0.292;2023-04-25T14:14:58;5.00;;;2.47;;
76208;SDS011;64990;51.698;-0.292;2023-04-25T14:17:25;7.88;;;2.53;;
76208;SDS011;64990;51.698;-0.292;2023-04-25T14:19:51;9.02;;;2.80;;
76208;SDS011;64990;51.698;-0.292;2023-04-25T14:22:17;9.25;;;1.52;;
76208;SDS011;64990;51.698;-0.292;2023-04-25T14:24:43;4.05;;;2.03;;
76208;SDS011;64990;51.698;-0.292;2023-04-25T14:27:09;11.25;;;3.70;;
76208;SDS011;64990;51.698;-0.292;2023-04-25T14:29:36;7.53;;;2.40;;
76208;SDS011;64990;51.698;-0.292;2023-04-25T14:32:02;6.10;;;2.75;;